createdAt,value
2017-10-22T00:01:18.477Z,40.28
2017-10-22T00:03:47.018Z,39.63
2017-10-22T00:06:14.771Z,42.50
2017-10-22T00:08:42.573Z,41.35
2017-10-22T00:11:10.314Z,41.78
2017-10-22T00:13:38.064Z,43.08
2017-10-22T00:16:05.877Z,43.85
2017-10-22T00:18:33.622Z,42.13
2017-10-22T00:21:02.130Z,39.65
2017-10-22T00:23:29.941Z,41.20
2017-10-22T00:25:57.692Z,43.87
2017-10-22T00:28:25.449Z,41.83
2017-10-22T00:30:53.258Z,44.95
2017-10-22T00:33:21.781Z,42.47
2017-10-22T00:35:50.323Z,41.60
2017-10-22T00:38:18.897Z,44.95
2017-10-22T00:40:47.425Z,42.88
2017-10-22T00:43:15.182Z,43.50
2017-10-22T00:45:42.985Z,48.17
2017-10-22T00:48:10.745Z,42.13
2017-10-22T00:50:38.521Z,43.17
2017-10-22T00:53:07.093Z,44.42
2017-10-22T00:55:34.862Z,46.67
2017-10-22T00:58:03.365Z,46.63
2017-10-22T01:00:31.175Z,43.78
2017-10-22T01:02:58.927Z,43.92
2017-10-22T01:05:26.689Z,45.28
2017-10-22T01:07:54.509Z,43.20
2017-10-22T01:10:22.275Z,43.97
2017-10-22T01:12:50.035Z,43.45
2017-10-22T01:15:17.861Z,44.85
2017-10-22T01:17:45.618Z,45.42
2017-10-22T01:20:13.380Z,46.35
2017-10-22T01:22:41.227Z,45.05
2017-10-22T01:25:09.001Z,47.33
2017-10-22T01:27:37.614Z,46.97
2017-10-22T01:30:06.181Z,43.90
2017-10-22T01:32:34.704Z,44.33
2017-10-22T01:35:03.244Z,43.55
2017-10-22T01:37:31.899Z,43.25
2017-10-22T01:40:00.760Z,40.53
2017-10-22T01:42:28.528Z,41.75
2017-10-22T01:44:56.378Z,43.83
2017-10-22T01:47:24.145Z,42.65
2017-10-22T01:49:51.917Z,44.60
2017-10-22T01:52:19.757Z,42.05
2017-10-22T01:54:47.608Z,47.08
2017-10-22T01:57:15.646Z,43.55
2017-10-22T01:59:43.513Z,45.08
2017-10-22T02:02:11.285Z,44.15
2017-10-22T02:04:39.827Z,42.22
2017-10-22T02:07:07.678Z,41.92
2017-10-22T02:09:35.443Z,41.22
2017-10-22T02:12:03.230Z,40.33
2017-10-22T02:14:31.156Z,41.72
2017-10-22T02:16:58.910Z,41.50
2017-10-22T02:19:26.661Z,39.78
2017-10-22T02:21:54.490Z,41.63
2017-10-22T02:24:22.250Z,40.50
2017-10-22T02:26:50.009Z,43.55
2017-10-22T02:29:17.856Z,38.92
2017-10-22T02:31:45.613Z,42.60
2017-10-22T02:34:13.371Z,42.80
2017-10-22T02:36:41.177Z,39.30
2017-10-22T02:39:09.690Z,37.17
2017-10-22T02:41:37.442Z,38.55
2017-10-22T02:44:05.241Z,42.33
2017-10-22T02:46:33.014Z,39.47
2017-10-22T02:49:00.775Z,39.20
2017-10-22T02:51:28.605Z,38.80
2017-10-22T02:53:56.374Z,40.88
2017-10-22T02:56:24.130Z,40.00
2017-10-22T02:58:51.944Z,40.17
2017-10-22T03:01:20.460Z,39.50
2017-10-22T03:03:48.218Z,39.05
2017-10-22T03:06:16.038Z,38.72
2017-10-22T03:08:43.787Z,39.50
2017-10-22T03:11:11.543Z,37.92
2017-10-22T03:13:39.362Z,37.65
2017-10-22T03:16:07.121Z,38.08
2017-10-22T03:18:34.871Z,37.88
2017-10-22T03:21:03.730Z,41.58
2017-10-22T03:23:31.486Z,40.10
2017-10-22T03:25:59.240Z,38.00
2017-10-22T03:28:27.051Z,38.83
2017-10-22T03:30:54.811Z,35.90
2017-10-22T03:33:22.582Z,38.85
2017-10-22T03:35:50.544Z,37.17
2017-10-22T03:38:18.292Z,38.67
2017-10-22T03:40:46.805Z,36.63
2017-10-22T03:43:14.618Z,38.78
2017-10-22T03:45:43.138Z,36.15
2017-10-22T03:48:10.886Z,37.20
2017-10-22T03:50:38.698Z,38.53
2017-10-22T03:53:06.445Z,37.55
2017-10-22T03:55:34.220Z,38.90
2017-10-22T03:58:02.038Z,38.65
2017-10-22T04:00:29.794Z,37.50
2017-10-22T04:02:57.571Z,38.90
2017-10-22T04:05:25.380Z,40.78
2017-10-22T04:07:53.137Z,38.53
2017-10-22T04:10:20.885Z,42.55
2017-10-22T04:12:48.702Z,39.95
2017-10-22T04:15:16.457Z,41.88
2017-10-22T04:17:44.976Z,41.22
2017-10-22T04:20:12.794Z,40.97
2017-10-22T04:22:41.317Z,43.33
2017-10-22T04:25:09.095Z,41.83
2017-10-22T04:27:36.913Z,44.30
2017-10-22T04:30:04.679Z,43.40
2017-10-22T04:32:32.436Z,41.17
2017-10-22T04:35:00.249Z,40.45
2017-10-22T04:37:27.993Z,44.22
2017-10-22T04:39:55.740Z,44.03
2017-10-22T04:42:23.554Z,42.50
2017-10-22T04:44:51.315Z,46.22
2017-10-22T04:47:19.058Z,44.70
2017-10-22T04:49:46.874Z,48.87
2017-10-22T04:52:14.649Z,49.40
2017-10-22T04:54:42.405Z,49.60
2017-10-22T04:57:10.222Z,50.67
2017-10-22T04:59:37.982Z,49.53
2017-10-22T05:02:05.740Z,51.83
2017-10-22T05:04:33.565Z,49.72
2017-10-22T05:07:01.337Z,49.63
2017-10-22T05:09:29.097Z,50.33
2017-10-22T05:11:56.919Z,54.75
2017-10-22T05:14:24.696Z,51.03
2017-10-22T05:16:52.457Z,50.12
2017-10-22T05:19:20.278Z,52.38
2017-10-22T05:21:48.060Z,51.08
2017-10-22T05:24:16.610Z,50.33
2017-10-22T05:26:44.434Z,52.55
2017-10-22T05:29:12.199Z,51.97
2017-10-22T05:31:39.998Z,52.08
2017-10-22T05:34:07.823Z,51.95
2017-10-22T05:36:35.587Z,46.25
2017-10-22T05:39:03.394Z,52.95
2017-10-22T05:41:31.229Z,53.25
2017-10-22T05:43:59.001Z,49.80
2017-10-22T05:46:26.771Z,53.10
2017-10-22T05:48:54.598Z,61.25
2017-10-22T05:51:22.379Z,56.03
2017-10-22T05:53:50.150Z,53.53
2017-10-22T05:56:17.981Z,46.90
2017-10-22T05:58:45.753Z,47.15
2017-10-22T06:01:14.285Z,47.53
2017-10-22T06:03:42.894Z,45.38
2017-10-22T06:06:10.667Z,46.08
2017-10-22T06:08:38.429Z,41.28
2017-10-22T06:11:06.267Z,46.22
2017-10-22T06:13:34.794Z,46.92
2017-10-22T06:16:02.554Z,41.88
2017-10-22T06:18:30.387Z,41.25
2017-10-22T06:20:58.158Z,44.80
2017-10-22T06:23:25.948Z,40.42
2017-10-22T06:25:53.803Z,42.88
2017-10-22T06:28:21.568Z,40.78
2017-10-22T06:30:49.344Z,40.75
2017-10-22T06:33:17.160Z,43.97
2017-10-22T06:35:44.930Z,40.03
2017-10-22T06:38:12.736Z,41.63
2017-10-22T06:40:40.887Z,39.85
2017-10-22T06:43:08.655Z,39.42
2017-10-22T06:45:36.429Z,40.40
2017-10-22T06:48:04.247Z,40.72
2017-10-22T06:50:32.023Z,40.45
2017-10-22T06:52:59.780Z,38.75
2017-10-22T06:55:27.642Z,39.13
2017-10-22T06:57:55.427Z,36.28
2017-10-22T07:00:23.203Z,39.33
2017-10-22T07:02:51.042Z,34.35
2017-10-22T07:05:18.814Z,36.67
2017-10-22T07:07:46.637Z,34.30
2017-10-22T07:10:14.494Z,36.70
2017-10-22T07:12:43.025Z,34.30
2017-10-22T07:15:10.819Z,36.85
2017-10-22T07:17:38.652Z,34.90
2017-10-22T07:20:06.413Z,32.72
2017-10-22T07:22:34.174Z,28.10
2017-10-22T07:25:02.005Z,25.40
2017-10-22T07:27:29.766Z,26.35
2017-10-22T07:29:57.521Z,26.00
2017-10-22T07:32:25.338Z,27.02
2017-10-22T07:34:53.115Z,27.08
2017-10-22T07:37:20.872Z,21.45
2017-10-22T07:39:48.721Z,21.87
2017-10-22T07:42:16.502Z,20.83
2017-10-22T07:44:44.271Z,18.37
2017-10-22T07:47:12.858Z,19.00
2017-10-22T07:49:41.394Z,16.23
2017-10-22T07:52:09.947Z,18.77
2017-10-22T07:54:37.770Z,15.43
2017-10-22T07:57:06.294Z,14.82
2017-10-22T07:59:34.055Z,11.55
2017-10-22T08:02:01.873Z,12.35
2017-10-22T08:04:30.419Z,12.50
2017-10-22T08:06:58.184Z,10.00
2017-10-22T08:09:25.997Z,9.23
2017-10-22T08:11:54.526Z,8.25
2017-10-22T08:14:22.283Z,8.13
2017-10-22T08:16:50.110Z,7.47
2017-10-22T08:19:17.858Z,6.85
2017-10-22T08:21:46.377Z,6.53
2017-10-22T08:24:14.195Z,6.97
2017-10-22T08:26:42.720Z,6.80
2017-10-22T08:29:10.500Z,6.47
2017-10-22T08:31:38.322Z,6.12
2017-10-22T08:34:06.071Z,6.93
2017-10-22T08:36:34.587Z,5.22
2017-10-22T08:39:02.386Z,7.20
2017-10-22T08:41:30.147Z,6.12
2017-10-22T08:43:57.899Z,6.93
2017-10-22T08:46:25.713Z,5.72
2017-10-22T08:48:53.507Z,7.22
2017-10-22T08:51:21.270Z,7.95
2017-10-22T08:53:49.093Z,8.20
2017-10-22T08:56:16.842Z,6.28
2017-10-22T08:58:45.391Z,4.62
2017-10-22T09:01:13.223Z,6.50
2017-10-22T09:03:40.978Z,5.12
2017-10-22T09:06:08.731Z,5.20
2017-10-22T09:08:36.581Z,5.12
2017-10-22T09:11:04.332Z,4.50
2017-10-22T09:13:32.862Z,4.82
2017-10-22T09:16:00.717Z,4.43
2017-10-22T09:18:28.479Z,4.43
2017-10-22T09:20:57.013Z,4.25
2017-10-22T09:23:25.597Z,3.75
2017-10-22T09:25:54.121Z,4.03
2017-10-22T09:28:21.883Z,3.47
2017-10-22T09:30:49.723Z,3.95
2017-10-22T09:33:17.477Z,4.72
2017-10-22T09:35:45.986Z,4.45
2017-10-22T09:38:13.845Z,4.25
2017-10-22T09:40:41.618Z,3.37
2017-10-22T09:43:09.383Z,3.97
2017-10-22T09:45:37.209Z,4.90
2017-10-22T09:48:04.971Z,4.20
2017-10-22T09:50:32.725Z,3.53
2017-10-22T09:53:00.555Z,3.97
2017-10-22T09:55:28.320Z,4.25
2017-10-22T09:57:56.092Z,4.30
2017-10-22T10:00:23.983Z,6.15
2017-10-22T10:02:51.739Z,5.20
2017-10-22T10:05:19.516Z,3.78
2017-10-22T10:07:47.348Z,3.70
2017-10-22T10:10:15.872Z,4.05
2017-10-22T10:12:43.641Z,3.40
2017-10-22T10:15:11.465Z,3.10
2017-10-22T10:17:39.229Z,3.47
2017-10-22T10:20:06.992Z,3.00
2017-10-22T10:22:34.823Z,3.75
2017-10-22T10:25:02.599Z,3.33
2017-10-22T10:27:31.140Z,3.87
2017-10-22T10:29:58.952Z,3.80
2017-10-22T10:32:26.722Z,4.47
2017-10-22T10:34:54.494Z,4.28
2017-10-22T10:37:22.326Z,5.37
2017-10-22T10:39:50.858Z,4.50
2017-10-22T10:42:18.617Z,4.45
2017-10-22T10:44:46.459Z,3.58
2017-10-22T10:47:14.221Z,4.00
2017-10-22T10:49:42.013Z,4.70
2017-10-22T10:52:09.854Z,3.10
2017-10-22T10:54:37.640Z,2.60
2017-10-22T10:57:05.455Z,3.92
2017-10-22T10:59:33.296Z,3.15
2017-10-22T11:02:01.121Z,3.33
2017-10-22T11:04:29.195Z,2.62
2017-10-22T11:06:57.053Z,4.20
2017-10-22T11:09:24.845Z,4.10
2017-10-22T11:11:52.613Z,3.30
2017-10-22T11:14:20.450Z,4.30
2017-10-22T11:16:48.203Z,3.78
2017-10-22T11:19:16.828Z,4.72
2017-10-22T11:21:44.639Z,4.00
2017-10-22T11:24:13.236Z,5.00
2017-10-22T11:26:41.499Z,3.30
2017-10-22T11:29:09.321Z,4.07
2017-10-22T11:31:37.907Z,4.28
2017-10-22T11:34:06.427Z,3.92
2017-10-22T11:36:34.245Z,5.07
2017-10-22T11:39:02.776Z,4.90
2017-10-22T11:41:30.549Z,4.07
2017-10-22T11:43:58.356Z,6.15
2017-10-22T11:46:26.113Z,5.30
2017-10-22T11:48:53.883Z,4.95
2017-10-22T11:51:21.689Z,5.55
2017-10-22T11:53:49.467Z,5.50
2017-10-22T11:56:17.337Z,5.03
2017-10-22T11:58:45.146Z,5.30
2017-10-22T12:01:12.919Z,5.50
2017-10-22T12:03:40.670Z,5.10
2017-10-22T12:06:08.591Z,3.90
2017-10-22T12:08:36.339Z,3.92
2017-10-22T12:11:04.102Z,5.85
2017-10-22T12:13:31.913Z,4.25
2017-10-22T12:15:59.686Z,4.35
2017-10-22T12:18:27.461Z,4.22
2017-10-22T12:20:55.293Z,5.87
2017-10-22T12:23:23.844Z,3.92
2017-10-22T12:25:51.601Z,3.83
2017-10-22T12:28:19.406Z,4.25
2017-10-22T12:30:47.168Z,4.65
2017-10-22T12:33:16.010Z,4.00
2017-10-22T12:35:44.700Z,6.25
2017-10-22T12:38:12.619Z,5.90
2017-10-22T12:40:40.427Z,3.92
2017-10-22T12:43:08.230Z,3.90
2017-10-22T12:45:36.053Z,5.28
2017-10-22T12:48:03.832Z,6.03
2017-10-22T12:50:32.468Z,5.32
2017-10-22T12:53:00.251Z,4.37
2017-10-22T12:55:28.023Z,5.50
2017-10-22T12:57:55.851Z,4.95
2017-10-22T13:00:23.688Z,5.75
2017-10-22T13:02:51.451Z,6.37
2017-10-22T13:05:20.098Z,5.55
2017-10-22T13:07:47.842Z,5.22
2017-10-22T13:10:15.678Z,4.95
2017-10-22T13:12:43.693Z,5.50
2017-10-22T13:15:12.241Z,5.87
2017-10-22T13:17:40.012Z,7.12
2017-10-22T13:20:07.832Z,6.30
2017-10-22T13:22:35.622Z,9.65
2017-10-22T13:25:03.827Z,9.60
2017-10-22T13:27:32.591Z,6.87
2017-10-22T13:30:00.396Z,6.15
2017-10-22T13:32:29.660Z,5.93
2017-10-22T13:34:58.074Z,6.78
2017-10-22T13:37:25.857Z,6.43
2017-10-22T13:39:53.626Z,5.90
2017-10-22T13:42:21.460Z,6.50
2017-10-22T13:44:49.966Z,5.80
2017-10-22T13:47:17.736Z,7.40
2017-10-22T13:49:45.560Z,8.25
2017-10-22T13:52:14.072Z,8.85
2017-10-22T13:54:41.857Z,12.85
2017-10-22T13:57:09.670Z,12.13
2017-10-22T13:59:37.423Z,13.60
2017-10-22T14:02:05.205Z,21.77
2017-10-22T14:04:33.027Z,13.52
2017-10-22T14:07:00.786Z,21.05
2017-10-22T14:09:28.563Z,30.83
2017-10-22T14:11:57.154Z,22.95
2017-10-22T14:14:25.675Z,19.77
2017-10-22T14:16:53.435Z,22.20
2017-10-22T14:19:21.261Z,22.33
2017-10-22T14:21:49.828Z,27.17
2017-10-22T14:24:18.347Z,20.85
2017-10-22T14:26:46.168Z,17.77
2017-10-22T14:29:14.689Z,25.88
2017-10-22T14:31:42.439Z,30.17
2017-10-22T14:34:10.254Z,30.52
2017-10-22T14:36:38.011Z,22.58
2017-10-22T14:39:05.781Z,20.60
2017-10-22T14:41:33.586Z,19.02
2017-10-22T14:44:01.345Z,17.50
2017-10-22T14:46:29.104Z,17.77
2017-10-22T14:48:56.940Z,15.73
2017-10-22T14:51:25.469Z,16.77
2017-10-22T14:53:53.238Z,15.90
2017-10-22T14:56:21.077Z,19.00
2017-10-22T14:58:48.839Z,13.52
2017-10-22T15:01:16.598Z,13.80
2017-10-22T15:03:44.409Z,13.05
2017-10-22T15:06:12.171Z,15.65
2017-10-22T15:08:39.934Z,13.98
2017-10-22T15:11:07.747Z,13.82
2017-10-22T15:13:35.579Z,13.60
2017-10-22T15:16:03.342Z,11.38
2017-10-22T15:18:31.171Z,14.40
2017-10-22T15:20:59.680Z,13.15
2017-10-22T15:23:27.442Z,17.15
2017-10-22T15:25:55.262Z,15.65
2017-10-22T15:28:23.011Z,13.55
2017-10-22T15:30:50.775Z,13.93
2017-10-22T15:33:18.590Z,14.25
2017-10-22T15:35:46.346Z,12.65
2017-10-22T15:38:14.102Z,13.65
2017-10-22T15:40:41.909Z,15.73
2017-10-22T15:43:09.653Z,14.77
2017-10-22T15:45:38.177Z,14.38
2017-10-22T15:48:05.988Z,16.35
2017-10-22T15:50:34.508Z,15.02
2017-10-22T15:53:02.268Z,15.80
2017-10-22T15:55:30.079Z,15.25
2017-10-22T15:57:57.842Z,18.30
2017-10-22T16:00:25.599Z,14.18
2017-10-22T16:02:53.459Z,15.60
2017-10-22T16:05:21.222Z,13.68
2017-10-22T16:07:48.977Z,13.18
2017-10-22T16:10:16.810Z,13.88
2017-10-22T16:12:44.566Z,13.10
2017-10-22T16:15:12.322Z,14.60
2017-10-22T16:17:40.129Z,14.43
2017-10-22T16:20:07.877Z,13.57
2017-10-22T16:22:35.622Z,15.73
2017-10-22T16:25:03.461Z,15.73
2017-10-22T16:27:31.203Z,16.02
2017-10-22T16:29:59.715Z,16.65
2017-10-22T16:32:27.529Z,14.90
2017-10-22T16:34:55.269Z,16.12
2017-10-22T16:37:23.013Z,15.80
2017-10-22T16:39:50.825Z,18.15
2017-10-22T16:42:19.330Z,19.30
2017-10-22T16:44:47.084Z,19.77
2017-10-22T16:47:14.904Z,17.92
2017-10-22T16:49:42.644Z,20.27
2017-10-22T16:52:10.387Z,20.62
2017-10-22T16:54:38.189Z,19.35
2017-10-22T16:57:05.932Z,21.98
2017-10-22T16:59:33.689Z,24.33
2017-10-22T17:02:01.501Z,29.40
2017-10-22T17:04:30.008Z,26.50
2017-10-22T17:06:57.752Z,22.58
2017-10-22T17:09:26.370Z,20.90
2017-10-22T17:11:54.114Z,20.30
2017-10-22T17:14:21.853Z,20.40
2017-10-22T17:16:50.426Z,21.67
2017-10-22T17:19:18.947Z,22.90
2017-10-22T17:21:46.695Z,21.33
2017-10-22T17:24:14.500Z,19.98
2017-10-22T17:26:42.241Z,20.90
2017-10-22T17:29:09.993Z,20.37
2017-10-22T17:31:37.895Z,25.42
2017-10-22T17:34:05.647Z,23.27
2017-10-22T17:36:33.443Z,20.55
2017-10-22T17:39:02.199Z,21.45
2017-10-22T17:41:30.616Z,22.05
2017-10-22T17:43:59.199Z,22.35
2017-10-22T17:46:27.162Z,21.80
2017-10-22T17:48:54.942Z,19.65
2017-10-22T17:51:22.761Z,20.70
2017-10-22T17:53:51.342Z,17.35
2017-10-22T17:56:19.098Z,16.35
2017-10-22T17:58:46.849Z,16.10
2017-10-22T18:01:14.667Z,17.35
2017-10-22T18:03:42.434Z,16.35
2017-10-22T18:06:10.181Z,17.15
2017-10-22T18:08:37.981Z,15.07
2017-10-22T18:11:05.735Z,16.05
2017-10-22T18:13:33.489Z,15.60
2017-10-22T18:16:01.297Z,16.80
2017-10-22T18:18:29.049Z,14.60
2017-10-22T18:20:56.791Z,16.50
2017-10-22T18:23:24.587Z,14.80
2017-10-22T18:25:52.345Z,14.63
2017-10-22T18:28:20.083Z,15.18
2017-10-22T18:30:47.988Z,15.98
2017-10-22T18:33:16.516Z,14.27
2017-10-22T18:35:44.280Z,15.32
2017-10-22T18:38:12.365Z,18.62
2017-10-22T18:40:40.198Z,16.27
2017-10-22T18:43:07.974Z,16.92
2017-10-22T18:45:35.801Z,15.77
2017-10-22T18:48:03.556Z,16.85
2017-10-22T18:50:31.357Z,14.87
2017-10-22T18:52:59.338Z,15.27
2017-10-22T18:55:27.925Z,14.68
2017-10-22T18:57:56.464Z,17.17
2017-10-22T19:00:24.821Z,16.52
2017-10-22T19:02:52.579Z,16.15
2017-10-22T19:05:21.098Z,16.55
2017-10-22T19:07:48.939Z,16.58
2017-10-22T19:10:17.534Z,17.35
2017-10-22T19:12:45.301Z,16.23
2017-10-22T19:15:13.229Z,16.40
2017-10-22T19:17:41.009Z,17.12
2017-10-22T19:20:09.572Z,15.52
2017-10-22T19:22:38.249Z,15.63
2017-10-22T19:25:06.817Z,16.50
2017-10-22T19:27:36.299Z,16.50
2017-10-22T19:30:04.302Z,17.10
2017-10-22T19:32:32.057Z,17.08
2017-10-22T19:35:00.632Z,17.70
2017-10-22T19:37:29.306Z,16.12
2017-10-22T19:39:57.500Z,15.23
2017-10-22T19:42:26.023Z,17.30
2017-10-22T19:44:54.029Z,16.45
2017-10-22T19:47:22.554Z,17.30
2017-10-22T19:49:50.337Z,18.55
2017-10-22T19:52:18.254Z,16.33
2017-10-22T19:54:46.771Z,19.35
2017-10-22T19:57:14.536Z,16.37
2017-10-22T19:59:42.395Z,18.80
2017-10-22T20:02:10.167Z,18.77
2017-10-22T20:04:37.933Z,19.35
2017-10-22T20:07:05.762Z,17.30
2017-10-22T20:09:33.517Z,18.33
2017-10-22T20:12:01.282Z,16.52
2017-10-22T20:14:29.101Z,17.70
2017-10-22T20:16:56.858Z,19.00
2017-10-22T20:19:24.649Z,16.77
2017-10-22T20:21:54.177Z,18.40
2017-10-22T20:24:21.943Z,16.50
2017-10-22T20:26:50.616Z,19.55
2017-10-22T20:29:18.462Z,18.35
2017-10-22T20:31:46.999Z,17.62
2017-10-22T20:34:16.513Z,17.75
2017-10-22T20:36:44.356Z,18.90
2017-10-22T20:39:12.101Z,21.55
2017-10-22T20:41:39.877Z,19.02
2017-10-22T20:44:07.706Z,18.85
2017-10-22T20:46:35.460Z,19.87
2017-10-22T20:49:03.990Z,18.02
2017-10-22T20:51:31.804Z,16.55
2017-10-22T20:54:00.320Z,17.15
2017-10-22T20:56:28.143Z,16.92
2017-10-22T20:58:56.720Z,16.80
2017-10-22T21:01:25.240Z,18.37
2017-10-22T21:03:52.981Z,17.77
2017-10-22T21:06:20.799Z,18.50
2017-10-22T21:08:48.561Z,18.55
2017-10-22T21:11:16.469Z,17.25
2017-10-22T21:13:44.292Z,16.90
2017-10-22T21:16:12.035Z,17.48
2017-10-22T21:18:39.778Z,16.37
2017-10-22T21:21:07.581Z,17.45
2017-10-22T21:23:35.323Z,15.85
2017-10-22T21:26:03.073Z,16.08
2017-10-22T21:28:30.883Z,16.90
2017-10-22T21:30:59.408Z,17.10
2017-10-22T21:33:27.169Z,16.83
2017-10-22T21:35:54.983Z,18.12
2017-10-22T21:38:23.494Z,16.90
2017-10-22T21:40:51.242Z,17.80
2017-10-22T21:43:19.096Z,17.15
2017-10-22T21:45:47.609Z,16.17
2017-10-22T21:48:15.402Z,16.50
2017-10-22T21:50:43.216Z,16.98
2017-10-22T21:53:10.971Z,17.05
2017-10-22T21:55:38.722Z,14.95
2017-10-22T21:58:07.297Z,14.45
2017-10-22T22:00:35.808Z,15.27
2017-10-22T22:03:03.558Z,14.85
2017-10-22T22:05:31.370Z,15.32
2017-10-22T22:07:59.118Z,15.85
2017-10-22T22:10:26.877Z,16.00
2017-10-22T22:12:54.698Z,14.57
2017-10-22T22:15:23.213Z,14.98
2017-10-22T22:17:51.729Z,15.18
2017-10-22T22:20:20.310Z,13.85
2017-10-22T22:22:48.057Z,13.77
2017-10-22T22:25:15.804Z,13.13
2017-10-22T22:27:43.616Z,13.13
2017-10-22T22:30:12.133Z,12.57
2017-10-22T22:32:39.868Z,13.57
2017-10-22T22:35:07.682Z,13.07
2017-10-22T22:37:35.427Z,13.10
2017-10-22T22:40:03.175Z,15.18
2017-10-22T22:42:30.981Z,13.90
2017-10-22T22:44:58.725Z,15.15
2017-10-22T22:47:26.484Z,14.70
2017-10-22T22:49:54.468Z,13.30
2017-10-22T22:52:22.218Z,14.95
2017-10-22T22:54:49.963Z,16.42
2017-10-22T22:57:17.776Z,16.00
2017-10-22T22:59:46.290Z,15.43
2017-10-22T23:02:14.041Z,15.50
2017-10-22T23:04:41.865Z,14.10
2017-10-22T23:07:09.616Z,17.00
2017-10-22T23:09:37.370Z,15.38
2017-10-22T23:12:05.177Z,17.58
2017-10-22T23:14:32.931Z,15.35
2017-10-22T23:17:00.697Z,17.48
2017-10-22T23:19:29.274Z,18.12
2017-10-22T23:21:57.793Z,17.40
2017-10-22T23:24:25.546Z,16.85
2017-10-22T23:26:53.358Z,15.80
2017-10-22T23:29:21.107Z,17.35
2017-10-22T23:31:48.858Z,16.10
2017-10-22T23:34:16.671Z,16.48
2017-10-22T23:36:44.443Z,16.15
2017-10-22T23:39:12.203Z,18.55
2017-10-22T23:41:40.034Z,16.83
2017-10-22T23:44:07.790Z,18.70
2017-10-22T23:46:35.552Z,19.35
2017-10-22T23:49:04.144Z,16.77
2017-10-22T23:51:31.931Z,19.80
2017-10-22T23:53:59.701Z,18.70
2017-10-22T23:56:27.527Z,17.27
2017-10-22T23:58:56.045Z,15.30
